首页
METAR-TAF:

METAR-TAF

机场 :

埃克塞特國際機場

埃克塞特, 英格兰

纬度: 50-44N, 经度: 003-25W, 海拔: 30米

当前天气观测

该预报发布于40分钟前的23:50 UTC
风速5节,风向
温度 17°C
湿度 100%
气压 1023 hPa
能見度: 8000
多云层高于800英尺

METAR: EGTE 252350Z 35005KT 8000 BKN008 17/17 Q1023

时间: 01:30 (00:30 UTC)

预报

该预报发布于4小时和35分钟前的19:55 UTC
预报有效从25日的 21点(UTC)到 26日的 03点(UTC)
风速6节,风向北转东北
能见度10公里或以上
散云层高于2200英尺
短暂存在
从 25日的 21点(UTC)到 26日的 03点(UTC)
能見度: 7000
多云层高于700英尺

TAF: EGTE 251955Z 2521/2603 03006KT 9999 SCT022 TEMPO 2521/2603 7000 BKN007

超过4000个机场的气象观测和天气预报(METAR&TAF报告)。

可查询的气象台以黄色和红色小点在地图上表示。

将鼠标移到小点上方,可查看气象台名称。

然后点击查看天气观测和预报。

如需切换地图:点击带黑十字的绿色按钮放大地图;点击带横线的绿色按钮缩小地图;或者点击绿色箭头查看邻近地区的地图。


METAR-TAF: